sensor_id;sensor_type;location;lat;lon;timestamp;P1;durP1;ratioP1;P2;durP2;ratioP2
19812;SDS011;10066;48.108;11.448;2022-09-20T00:00:15;1.27;;;0.80;;
19812;SDS011;10066;48.108;11.448;2022-09-20T00:02:42;3.33;;;1.13;;
19812;SDS011;10066;48.108;11.448;2022-09-20T00:05:09;2.30;;;0.70;;
19812;SDS011;10066;48.108;11.448;2022-09-20T00:07:37;3.47;;;1.10;;
19812;SDS011;10066;48.108;11.448;2022-09-20T00:10:04;1.27;;;0.63;;
19812;SDS011;10066;48.108;11.448;2022-09-20T00:12:32;1.43;;;0.67;;
19812;SDS011;10066;48.108;11.448;2022-09-20T00:14:59;2.90;;;0.80;;
19812;SDS011;10066;48.108;11.448;2022-09-20T00:17:26;0.97;;;0.70;;
19812;SDS011;10066;48.108;11.448;2022-09-20T00:19:53;2.27;;;0.80;;
19812;SDS011;10066;48.108;11.448;2022-09-20T00:22:20;1.47;;;0.90;;
19812;SDS011;10066;48.108;11.448;2022-09-20T00:24:49;2.67;;;0.90;;
19812;SDS011;10066;48.108;11.448;2022-09-20T00:27:16;2.23;;;0.80;;
19812;SDS011;10066;48.108;11.448;2022-09-20T00:29:43;2.33;;;0.87;;
19812;SDS011;10066;48.108;11.448;2022-09-20T00:32:10;2.17;;;0.90;;
19812;SDS011;10066;48.108;11.448;2022-09-20T00:34:37;1.93;;;0.90;;
19812;SDS011;10066;48.108;11.448;2022-09-20T00:37:21;3.70;;;1.00;;
19812;SDS011;10066;48.108;11.448;2022-09-20T00:39:50;1.33;;;0.90;;
19812;SDS011;10066;48.108;11.448;2022-09-20T00:42:17;2.53;;;1.00;;
19812;SDS011;10066;48.108;11.448;2022-09-20T00:44:46;2.03;;;1.10;;
19812;SDS011;10066;48.108;11.448;2022-09-20T00:47:25;2.77;;;0.80;;
19812;SDS011;10066;48.108;11.448;2022-09-20T00:50:02;3.93;;;0.93;;
19812;SDS011;10066;48.108;11.448;2022-09-20T00:52:36;2.80;;;0.80;;
19812;SDS011;10066;48.108;11.448;2022-09-20T00:55:07;4.67;;;0.87;;
19812;SDS011;10066;48.108;11.448;2022-09-20T00:57:35;3.30;;;1.10;;
19812;SDS011;10066;48.108;11.448;2022-09-20T01:00:03;4.40;;;1.10;;
19812;SDS011;10066;48.108;11.448;2022-09-20T01:02:32;2.67;;;1.10;;
19812;SDS011;10066;48.108;11.448;2022-09-20T01:05:02;3.00;;;1.00;;
19812;SDS011;10066;48.108;11.448;2022-09-20T01:07:30;4.50;;;1.20;;
19812;SDS011;10066;48.108;11.448;2022-09-20T01:09:58;2.23;;;0.90;;
19812;SDS011;10066;48.108;11.448;2022-09-20T01:12:28;3.93;;;1.27;;
19812;SDS011;10066;48.108;11.448;2022-09-20T01:14:58;1.33;;;0.90;;
19812;SDS011;10066;48.108;11.448;2022-09-20T01:17:28;2.00;;;0.90;;
19812;SDS011;10066;48.108;11.448;2022-09-20T01:20:09;1.23;;;0.70;;
19812;SDS011;10066;48.108;11.448;2022-09-20T01:25:47;1.80;;;0.87;;
19812;SDS011;10066;48.108;11.448;2022-09-20T01:28:45;2.47;;;1.10;;
19812;SDS011;10066;48.108;11.448;2022-09-20T01:31:16;1.27;;;0.73;;
19812;SDS011;10066;48.108;11.448;2022-09-20T01:33:48;3.07;;;0.70;;
19812;SDS011;10066;48.108;11.448;2022-09-20T01:36:19;1.00;;;0.80;;
19812;SDS011;10066;48.108;11.448;2022-09-20T01:38:51;2.43;;;0.97;;
19812;SDS011;10066;48.108;11.448;2022-09-20T01:41:26;2.17;;;1.03;;
19812;SDS011;10066;48.108;11.448;2022-09-20T01:44:01;3.53;;;0.87;;
19812;SDS011;10066;48.108;11.448;2022-09-20T01:46:34;1.60;;;0.80;;
19812;SDS011;10066;48.108;11.448;2022-09-20T01:49:09;2.43;;;0.83;;
19812;SDS011;10066;48.108;11.448;2022-09-20T01:51:58;2.33;;;0.83;;
19812;SDS011;10066;48.108;11.448;2022-09-20T02:06:41;3.70;;;1.03;;
19812;SDS011;10066;48.108;11.448;2022-09-20T02:09:29;4.00;;;1.40;;
19812;SDS011;10066;48.108;11.448;2022-09-20T02:12:18;3.43;;;0.70;;
19812;SDS011;10066;48.108;11.448;2022-09-20T02:14:57;2.80;;;0.80;;
19812;SDS011;10066;48.108;11.448;2022-09-20T02:17:37;1.67;;;0.77;;
19812;SDS011;10066;48.108;11.448;2022-09-20T02:20:25;2.57;;;0.80;;
19812;SDS011;10066;48.108;11.448;2022-09-20T02:23:08;1.80;;;0.87;;
19812;SDS011;10066;48.108;11.448;2022-09-20T02:25:48;2.13;;;1.10;;
19812;SDS011;10066;48.108;11.448;2022-09-20T02:28:28;2.20;;;1.00;;
19812;SDS011;10066;48.108;11.448;2022-09-20T02:31:08;2.93;;;1.00;;
19812;SDS011;10066;48.108;11.448;2022-09-20T02:33:51;1.57;;;1.00;;
19812;SDS011;10066;48.108;11.448;2022-09-20T02:36:33;1.30;;;0.80;;
19812;SDS011;10066;48.108;11.448;2022-09-20T02:39:09;2.07;;;1.23;;
19812;SDS011;10066;48.108;11.448;2022-09-20T02:44:45;4.37;;;1.33;;
19812;SDS011;10066;48.108;11.448;2022-09-20T02:47:21;2.83;;;0.97;;
19812;SDS011;10066;48.108;11.448;2022-09-20T02:49:59;1.23;;;0.90;;
19812;SDS011;10066;48.108;11.448;2022-09-20T02:52:56;2.63;;;1.17;;
19812;SDS011;10066;48.108;11.448;2022-09-20T02:55:34;2.13;;;0.93;;
19812;SDS011;10066;48.108;11.448;2022-09-20T02:58:10;1.80;;;1.00;;
19812;SDS011;10066;48.108;11.448;2022-09-20T03:00:52;2.33;;;1.00;;
19812;SDS011;10066;48.108;11.448;2022-09-20T03:03:28;3.23;;;1.00;;
19812;SDS011;10066;48.108;11.448;2022-09-20T03:06:06;1.17;;;0.90;;
19812;SDS011;10066;48.108;11.448;2022-09-20T03:08:42;2.33;;;1.07;;
19812;SDS011;10066;48.108;11.448;2022-09-20T03:11:17;6.17;;;1.10;;
19812;SDS011;10066;48.108;11.448;2022-09-20T03:14:03;4.73;;;1.47;;
19812;SDS011;10066;48.108;11.448;2022-09-20T03:16:39;3.37;;;1.33;;
19812;SDS011;10066;48.108;11.448;2022-09-20T03:19:23;1.67;;;0.93;;
19812;SDS011;10066;48.108;11.448;2022-09-20T03:22:02;2.60;;;1.27;;
19812;SDS011;10066;48.108;11.448;2022-09-20T03:24:40;1.87;;;1.00;;
19812;SDS011;10066;48.108;11.448;2022-09-20T03:27:22;1.80;;;1.13;;
19812;SDS011;10066;48.108;11.448;2022-09-20T03:29:59;4.00;;;1.07;;
19812;SDS011;10066;48.108;11.448;2022-09-20T03:32:42;1.40;;;1.10;;
19812;SDS011;10066;48.108;11.448;2022-09-20T03:35:26;2.80;;;1.27;;
19812;SDS011;10066;48.108;11.448;2022-09-20T03:38:09;3.37;;;1.03;;
19812;SDS011;10066;48.108;11.448;2022-09-20T03:40:54;2.33;;;1.23;;
19812;SDS011;10066;48.108;11.448;2022-09-20T03:43:36;6.33;;;1.63;;
19812;SDS011;10066;48.108;11.448;2022-09-20T03:46:15;2.37;;;1.60;;
19812;SDS011;10066;48.108;11.448;2022-09-20T03:48:49;3.40;;;1.27;;
19812;SDS011;10066;48.108;11.448;2022-09-20T03:51:28;2.83;;;1.40;;
19812;SDS011;10066;48.108;11.448;2022-09-20T03:54:22;2.83;;;1.20;;
19812;SDS011;10066;48.108;11.448;2022-09-20T03:57:38;3.53;;;1.50;;
19812;SDS011;10066;48.108;11.448;2022-09-20T04:00:29;1.70;;;1.30;;
19812;SDS011;10066;48.108;11.448;2022-09-20T04:03:12;2.63;;;1.10;;
19812;SDS011;10066;48.108;11.448;2022-09-20T04:08:47;2.13;;;1.33;;
19812;SDS011;10066;48.108;11.448;2022-09-20T04:11:28;1.93;;;1.20;;
19812;SDS011;10066;48.108;11.448;2022-09-20T04:14:08;3.10;;;1.33;;
19812;SDS011;10066;48.108;11.448;2022-09-20T04:16:42;3.47;;;1.53;;
19812;SDS011;10066;48.108;11.448;2022-09-20T04:19:16;4.93;;;1.27;;
19812;SDS011;10066;48.108;11.448;2022-09-20T04:21:52;4.63;;;1.40;;
19812;SDS011;10066;48.108;11.448;2022-09-20T04:24:22;4.23;;;1.50;;
19812;SDS011;10066;48.108;11.448;2022-09-20T04:27:00;3.30;;;1.30;;
19812;SDS011;10066;48.108;11.448;2022-09-20T04:29:33;4.50;;;1.63;;
19812;SDS011;10066;48.108;11.448;2022-09-20T04:32:10;2.17;;;1.40;;
19812;SDS011;10066;48.108;11.448;2022-09-20T04:34:42;2.40;;;1.23;;
19812;SDS011;10066;48.108;11.448;2022-09-20T04:37:30;3.97;;;1.40;;
19812;SDS011;10066;48.108;11.448;2022-09-20T04:40:03;3.93;;;1.40;;
19812;SDS011;10066;48.108;11.448;2022-09-20T04:42:45;3.47;;;1.60;;
19812;SDS011;10066;48.108;11.448;2022-09-20T04:58:02;7.00;;;1.80;;
19812;SDS011;10066;48.108;11.448;2022-09-20T05:10:22;5.50;;;1.57;;
19812;SDS011;10066;48.108;11.448;2022-09-20T05:13:15;2.57;;;1.43;;
19812;SDS011;10066;48.108;11.448;2022-09-20T05:15:55;4.27;;;1.73;;
19812;SDS011;10066;48.108;11.448;2022-09-20T05:18:37;3.47;;;2.00;;
19812;SDS011;10066;48.108;11.448;2022-09-20T05:21:44;3.83;;;1.77;;
19812;SDS011;10066;48.108;11.448;2022-09-20T05:27:28;6.17;;;1.67;;
19812;SDS011;10066;48.108;11.448;2022-09-20T05:30:10;3.17;;;1.90;;
19812;SDS011;10066;48.108;11.448;2022-09-20T05:32:47;5.17;;;1.80;;
19812;SDS011;10066;48.108;11.448;2022-09-20T05:35:27;3.50;;;1.67;;
19812;SDS011;10066;48.108;11.448;2022-09-20T05:38:00;4.83;;;1.83;;
19812;SDS011;10066;48.108;11.448;2022-09-20T05:40:36;2.80;;;1.70;;
19812;SDS011;10066;48.108;11.448;2022-09-20T05:43:18;2.83;;;1.67;;
19812;SDS011;10066;48.108;11.448;2022-09-20T05:45:57;4.07;;;1.80;;
19812;SDS011;10066;48.108;11.448;2022-09-20T05:48:34;5.00;;;2.07;;
19812;SDS011;10066;48.108;11.448;2022-09-20T05:51:08;5.83;;;1.77;;
19812;SDS011;10066;48.108;11.448;2022-09-20T05:53:56;5.90;;;1.90;;
19812;SDS011;10066;48.108;11.448;2022-09-20T05:56:44;3.53;;;1.80;;
19812;SDS011;10066;48.108;11.448;2022-09-20T05:59:21;8.97;;;2.17;;
19812;SDS011;10066;48.108;11.448;2022-09-20T06:01:57;3.80;;;1.97;;
19812;SDS011;10066;48.108;11.448;2022-09-20T06:04:37;5.00;;;1.90;;
19812;SDS011;10066;48.108;11.448;2022-09-20T06:07:19;4.07;;;1.90;;
19812;SDS011;10066;48.108;11.448;2022-09-20T06:10:12;3.83;;;1.70;;
19812;SDS011;10066;48.108;11.448;2022-09-20T06:12:51;7.10;;;1.80;;
19812;SDS011;10066;48.108;11.448;2022-09-20T06:15:25;4.00;;;1.97;;
19812;SDS011;10066;48.108;11.448;2022-09-20T06:18:03;4.50;;;1.70;;
19812;SDS011;10066;48.108;11.448;2022-09-20T06:20:42;5.27;;;2.37;;
19812;SDS011;10066;48.108;11.448;2022-09-20T06:23:16;12.20;;;2.60;;
19812;SDS011;10066;48.108;11.448;2022-09-20T06:25:46;4.97;;;2.00;;
19812;SDS011;10066;48.108;11.448;2022-09-20T06:28:20;5.37;;;2.13;;
19812;SDS011;10066;48.108;11.448;2022-09-20T06:30:51;7.07;;;2.10;;
19812;SDS011;10066;48.108;11.448;2022-09-20T06:33:21;6.03;;;2.30;;
19812;SDS011;10066;48.108;11.448;2022-09-20T06:35:50;4.23;;;1.83;;
19812;SDS011;10066;48.108;11.448;2022-09-20T06:41:32;3.87;;;1.87;;
19812;SDS011;10066;48.108;11.448;2022-09-20T06:44:02;5.73;;;2.00;;
19812;SDS011;10066;48.108;11.448;2022-09-20T06:46:31;5.83;;;1.80;;
19812;SDS011;10066;48.108;11.448;2022-09-20T06:48:59;5.67;;;1.70;;
19812;SDS011;10066;48.108;11.448;2022-09-20T06:51:27;8.57;;;2.10;;
19812;SDS011;10066;48.108;11.448;2022-09-20T06:54:00;6.70;;;1.93;;
19812;SDS011;10066;48.108;11.448;2022-09-20T06:56:30;5.53;;;1.70;;
19812;SDS011;10066;48.108;11.448;2022-09-20T06:59:00;4.70;;;1.83;;
19812;SDS011;10066;48.108;11.448;2022-09-20T07:01:28;8.70;;;2.00;;
19812;SDS011;10066;48.108;11.448;2022-09-20T07:03:55;5.13;;;1.90;;
19812;SDS011;10066;48.108;11.448;2022-09-20T07:06:22;6.37;;;2.00;;
19812;SDS011;10066;48.108;11.448;2022-09-20T07:08:49;4.37;;;1.80;;
19812;SDS011;10066;48.108;11.448;2022-09-20T07:11:17;7.13;;;2.10;;
19812;SDS011;10066;48.108;11.448;2022-09-20T07:13:48;3.37;;;1.90;;
19812;SDS011;10066;48.108;11.448;2022-09-20T07:16:16;3.63;;;1.90;;
19812;SDS011;10066;48.108;11.448;2022-09-20T07:18:44;5.70;;;1.70;;
19812;SDS011;10066;48.108;11.448;2022-09-20T07:21:12;6.87;;;1.70;;
19812;SDS011;10066;48.108;11.448;2022-09-20T07:23:41;4.03;;;2.00;;
19812;SDS011;10066;48.108;11.448;2022-09-20T07:26:14;5.23;;;1.90;;
19812;SDS011;10066;48.108;11.448;2022-09-20T07:28:45;5.83;;;1.80;;
19812;SDS011;10066;48.108;11.448;2022-09-20T07:31:13;4.40;;;2.27;;
19812;SDS011;10066;48.108;11.448;2022-09-20T07:33:41;6.97;;;2.03;;
19812;SDS011;10066;48.108;11.448;2022-09-20T07:36:08;5.63;;;1.77;;
19812;SDS011;10066;48.108;11.448;2022-09-20T07:38:36;8.73;;;2.00;;
19812;SDS011;10066;48.108;11.448;2022-09-20T07:41:03;7.63;;;2.20;;
19812;SDS011;10066;48.108;11.448;2022-09-20T07:43:33;6.10;;;2.03;;
19812;SDS011;10066;48.108;11.448;2022-09-20T07:46:00;5.43;;;2.00;;
19812;SDS011;10066;48.108;11.448;2022-09-20T07:48:28;4.43;;;1.77;;
19812;SDS011;10066;48.108;11.448;2022-09-20T07:50:57;7.87;;;2.77;;
19812;SDS011;10066;48.108;11.448;2022-09-20T07:53:26;3.87;;;1.43;;
19812;SDS011;10066;48.108;11.448;2022-09-20T07:55:55;4.83;;;2.07;;
19812;SDS011;10066;48.108;11.448;2022-09-20T07:58:23;7.07;;;2.50;;
19812;SDS011;10066;48.108;11.448;2022-09-20T08:00:52;7.97;;;2.60;;
19812;SDS011;10066;48.108;11.448;2022-09-20T08:03:20;9.90;;;3.00;;
19812;SDS011;10066;48.108;11.448;2022-09-20T08:05:47;6.90;;;3.20;;
19812;SDS011;10066;48.108;11.448;2022-09-20T08:08:14;8.00;;;3.43;;
19812;SDS011;10066;48.108;11.448;2022-09-20T08:10:42;7.37;;;3.37;;
19812;SDS011;10066;48.108;11.448;2022-09-20T08:13:10;6.93;;;3.27;;
19812;SDS011;10066;48.108;11.448;2022-09-20T08:15:37;9.47;;;3.43;;
19812;SDS011;10066;48.108;11.448;2022-09-20T08:18:06;7.47;;;3.17;;
19812;SDS011;10066;48.108;11.448;2022-09-20T08:20:34;6.97;;;2.90;;
19812;SDS011;10066;48.108;11.448;2022-09-20T08:23:02;7.03;;;2.70;;
19812;SDS011;10066;48.108;11.448;2022-09-20T08:25:30;5.10;;;2.83;;
19812;SDS011;10066;48.108;11.448;2022-09-20T08:27:57;5.93;;;2.93;;
19812;SDS011;10066;48.108;11.448;2022-09-20T08:30:24;11.17;;;3.20;;
19812;SDS011;10066;48.108;11.448;2022-09-20T08:32:51;7.50;;;3.87;;
19812;SDS011;10066;48.108;11.448;2022-09-20T08:35:21;10.40;;;3.83;;
19812;SDS011;10066;48.108;11.448;2022-09-20T08:37:49;11.63;;;3.80;;
19812;SDS011;10066;48.108;11.448;2022-09-20T08:40:19;9.73;;;3.60;;
19812;SDS011;10066;48.108;11.448;2022-09-20T08:42:52;8.90;;;3.67;;
19812;SDS011;10066;48.108;11.448;2022-09-20T08:45:20;8.17;;;3.83;;
19812;SDS011;10066;48.108;11.448;2022-09-20T08:47:50;6.30;;;3.50;;
19812;SDS011;10066;48.108;11.448;2022-09-20T08:50:21;10.97;;;4.10;;
19812;SDS011;10066;48.108;11.448;2022-09-20T08:52:51;9.37;;;3.77;;
19812;SDS011;10066;48.108;11.448;2022-09-20T08:55:22;8.27;;;4.03;;
19812;SDS011;10066;48.108;11.448;2022-09-20T08:57:52;8.87;;;4.17;;
19812;SDS011;10066;48.108;11.448;2022-09-20T09:00:21;8.93;;;4.43;;
19812;SDS011;10066;48.108;11.448;2022-09-20T09:02:51;9.53;;;4.17;;
19812;SDS011;10066;48.108;11.448;2022-09-20T09:05:30;12.80;;;4.53;;
19812;SDS011;10066;48.108;11.448;2022-09-20T09:07:59;7.63;;;4.53;;
19812;SDS011;10066;48.108;11.448;2022-09-20T09:10:31;9.70;;;4.23;;
19812;SDS011;10066;48.108;11.448;2022-09-20T09:13:01;6.07;;;4.17;;
19812;SDS011;10066;48.108;11.448;2022-09-20T09:15:31;2.63;;;2.30;;
19812;SDS011;10066;48.108;11.448;2022-09-20T09:18:01;9.13;;;3.83;;
19812;SDS011;10066;48.108;11.448;2022-09-20T09:20:30;8.87;;;3.03;;
19812;SDS011;10066;48.108;11.448;2022-09-20T09:23:19;6.00;;;3.17;;
19812;SDS011;10066;48.108;11.448;2022-09-20T09:25:50;7.47;;;3.53;;
19812;SDS011;10066;48.108;11.448;2022-09-20T09:28:21;10.20;;;4.10;;
19812;SDS011;10066;48.108;11.448;2022-09-20T09:30:49;10.27;;;3.90;;
19812;SDS011;10066;48.108;11.448;2022-09-20T09:33:20;8.03;;;3.53;;
19812;SDS011;10066;48.108;11.448;2022-09-20T09:35:53;10.77;;;3.90;;
19812;SDS011;10066;48.108;11.448;2022-09-20T09:38:22;8.03;;;4.30;;
19812;SDS011;10066;48.108;11.448;2022-09-20T09:40:52;8.17;;;3.70;;
19812;SDS011;10066;48.108;11.448;2022-09-20T09:43:21;6.13;;;3.27;;
19812;SDS011;10066;48.108;11.448;2022-09-20T09:45:52;7.63;;;3.47;;
19812;SDS011;10066;48.108;11.448;2022-09-20T09:48:22;11.23;;;3.80;;
19812;SDS011;10066;48.108;11.448;2022-09-20T09:53:37;7.90;;;2.67;;
19812;SDS011;10066;48.108;11.448;2022-09-20T09:56:09;6.57;;;3.23;;
19812;SDS011;10066;48.108;11.448;2022-09-20T09:59:08;6.30;;;2.33;;
19812;SDS011;10066;48.108;11.448;2022-09-20T10:01:57;3.83;;;2.10;;
19812;SDS011;10066;48.108;11.448;2022-09-20T10:04:35;4.23;;;1.97;;
19812;SDS011;10066;48.108;11.448;2022-09-20T10:07:09;5.07;;;1.87;;
19812;SDS011;10066;48.108;11.448;2022-09-20T10:09:49;4.20;;;1.60;;
19812;SDS011;10066;48.108;11.448;2022-09-20T10:12:31;3.77;;;1.60;;
19812;SDS011;10066;48.108;11.448;2022-09-20T10:15:13;6.63;;;1.83;;
19812;SDS011;10066;48.108;11.448;2022-09-20T10:17:53;7.40;;;1.50;;
19812;SDS011;10066;48.108;11.448;2022-09-20T10:20:42;4.40;;;1.50;;
19812;SDS011;10066;48.108;11.448;2022-09-20T10:23:22;5.50;;;1.73;;
19812;SDS011;10066;48.108;11.448;2022-09-20T10:26:06;2.20;;;1.20;;
19812;SDS011;10066;48.108;11.448;2022-09-20T10:28:48;5.50;;;1.50;;
19812;SDS011;10066;48.108;11.448;2022-09-20T10:31:32;5.53;;;1.67;;
19812;SDS011;10066;48.108;11.448;2022-09-20T10:34:10;7.50;;;1.70;;
19812;SDS011;10066;48.108;11.448;2022-09-20T10:37:01;7.20;;;1.70;;
19812;SDS011;10066;48.108;11.448;2022-09-20T10:39:30;5.03;;;1.50;;
19812;SDS011;10066;48.108;11.448;2022-09-20T10:42:02;3.27;;;1.40;;
19812;SDS011;10066;48.108;11.448;2022-09-20T10:45:09;2.90;;;1.20;;
19812;SDS011;10066;48.108;11.448;2022-09-20T10:47:43;4.23;;;1.30;;
19812;SDS011;10066;48.108;11.448;2022-09-20T10:50:17;5.90;;;2.03;;
19812;SDS011;10066;48.108;11.448;2022-09-20T10:53:00;4.20;;;1.37;;
19812;SDS011;10066;48.108;11.448;2022-09-20T10:55:39;4.47;;;1.60;;
19812;SDS011;10066;48.108;11.448;2022-09-20T11:01:26;3.90;;;1.30;;
19812;SDS011;10066;48.108;11.448;2022-09-20T11:04:06;3.53;;;1.50;;
19812;SDS011;10066;48.108;11.448;2022-09-20T11:06:49;2.13;;;1.20;;
19812;SDS011;10066;48.108;11.448;2022-09-20T11:09:22;6.40;;;0.97;;
19812;SDS011;10066;48.108;11.448;2022-09-20T11:11:57;5.57;;;1.10;;
19812;SDS011;10066;48.108;11.448;2022-09-20T11:14:37;5.73;;;1.47;;
19812;SDS011;10066;48.108;11.448;2022-09-20T11:17:10;3.90;;;1.30;;
19812;SDS011;10066;48.108;11.448;2022-09-20T11:19:45;5.37;;;1.40;;
19812;SDS011;10066;48.108;11.448;2022-09-20T11:22:17;4.13;;;1.33;;
19812;SDS011;10066;48.108;11.448;2022-09-20T11:24:47;7.07;;;1.60;;
19812;SDS011;10066;48.108;11.448;2022-09-20T11:27:19;4.23;;;1.60;;
19812;SDS011;10066;48.108;11.448;2022-09-20T11:29:52;6.17;;;1.87;;
19812;SDS011;10066;48.108;11.448;2022-09-20T11:32:29;4.67;;;1.40;;
19812;SDS011;10066;48.108;11.448;2022-09-20T11:35:03;5.83;;;1.80;;
19812;SDS011;10066;48.108;11.448;2022-09-20T11:37:45;9.53;;;1.50;;
19812;SDS011;10066;48.108;11.448;2022-09-20T11:40:19;7.07;;;1.57;;
19812;SDS011;10066;48.108;11.448;2022-09-20T11:42:52;5.73;;;1.50;;
19812;SDS011;10066;48.108;11.448;2022-09-20T11:45:22;5.43;;;1.50;;
19812;SDS011;10066;48.108;11.448;2022-09-20T11:47:51;3.47;;;1.50;;
19812;SDS011;10066;48.108;11.448;2022-09-20T11:50:40;4.17;;;1.30;;
19812;SDS011;10066;48.108;11.448;2022-09-20T11:53:25;4.13;;;1.13;;
19812;SDS011;10066;48.108;11.448;2022-09-20T11:55:59;4.50;;;1.40;;
19812;SDS011;10066;48.108;11.448;2022-09-20T11:58:30;2.77;;;0.90;;
19812;SDS011;10066;48.108;11.448;2022-09-20T12:01:12;2.83;;;0.90;;
19812;SDS011;10066;48.108;11.448;2022-09-20T12:03:42;2.67;;;1.00;;
19812;SDS011;10066;48.108;11.448;2022-09-20T12:06:20;5.10;;;1.20;;
19812;SDS011;10066;48.108;11.448;2022-09-20T12:08:53;3.07;;;1.07;;
19812;SDS011;10066;48.108;11.448;2022-09-20T12:11:25;3.90;;;1.13;;
19812;SDS011;10066;48.108;11.448;2022-09-20T12:13:59;5.87;;;1.60;;
19812;SDS011;10066;48.108;11.448;2022-09-20T12:16:37;6.23;;;1.23;;
19812;SDS011;10066;48.108;11.448;2022-09-20T12:19:07;3.60;;;0.90;;
19812;SDS011;10066;48.108;11.448;2022-09-20T12:24:42;3.97;;;1.00;;
19812;SDS011;10066;48.108;11.448;2022-09-20T12:27:19;3.13;;;1.30;;
19812;SDS011;10066;48.108;11.448;2022-09-20T12:30:15;2.67;;;1.37;;
19812;SDS011;10066;48.108;11.448;2022-09-20T12:32:49;4.00;;;1.10;;
19812;SDS011;10066;48.108;11.448;2022-09-20T12:41:25;3.87;;;1.20;;
19812;SDS011;10066;48.108;11.448;2022-09-20T12:44:01;2.50;;;1.00;;
19812;SDS011;10066;48.108;11.448;2022-09-20T12:46:33;4.70;;;1.10;;
19812;SDS011;10066;48.108;11.448;2022-09-20T12:52:28;5.20;;;1.37;;
19812;SDS011;10066;48.108;11.448;2022-09-20T12:58:18;2.97;;;1.20;;
19812;SDS011;10066;48.108;11.448;2022-09-20T13:04:01;2.53;;;0.90;;
19812;SDS011;10066;48.108;11.448;2022-09-20T13:10:12;3.70;;;1.10;;
19812;SDS011;10066;48.108;11.448;2022-09-20T13:12:50;4.70;;;1.17;;
19812;SDS011;10066;48.108;11.448;2022-09-20T13:15:21;6.50;;;1.30;;
19812;SDS011;10066;48.108;11.448;2022-09-20T13:17:48;3.17;;;1.20;;
19812;SDS011;10066;48.108;11.448;2022-09-20T13:20:21;5.77;;;1.10;;
19812;SDS011;10066;48.108;11.448;2022-09-20T13:22:50;6.47;;;1.17;;
19812;SDS011;10066;48.108;11.448;2022-09-20T13:25:20;3.53;;;1.37;;
19812;SDS011;10066;48.108;11.448;2022-09-20T13:27:50;4.73;;;1.23;;
19812;SDS011;10066;48.108;11.448;2022-09-20T13:30:26;3.73;;;1.00;;
19812;SDS011;10066;48.108;11.448;2022-09-20T13:32:56;3.97;;;1.10;;
19812;SDS011;10066;48.108;11.448;2022-09-20T13:35:41;4.43;;;1.17;;
19812;SDS011;10066;48.108;11.448;2022-09-20T13:38:11;2.27;;;1.20;;
19812;SDS011;10066;48.108;11.448;2022-09-20T13:40:39;2.00;;;0.70;;
19812;SDS011;10066;48.108;11.448;2022-09-20T13:43:15;4.80;;;1.37;;
19812;SDS011;10066;48.108;11.448;2022-09-20T13:45:50;5.30;;;0.90;;
19812;SDS011;10066;48.108;11.448;2022-09-20T13:48:22;5.43;;;0.80;;
19812;SDS011;10066;48.108;11.448;2022-09-20T13:50:52;3.13;;;1.00;;
19812;SDS011;10066;48.108;11.448;2022-09-20T13:53:20;2.83;;;0.90;;
19812;SDS011;10066;48.108;11.448;2022-09-20T13:55:48;5.30;;;1.23;;
19812;SDS011;10066;48.108;11.448;2022-09-20T13:58:17;3.23;;;1.23;;
19812;SDS011;10066;48.108;11.448;2022-09-20T14:00:47;2.80;;;1.13;;
19812;SDS011;10066;48.108;11.448;2022-09-20T14:03:17;3.53;;;0.87;;
19812;SDS011;10066;48.108;11.448;2022-09-20T14:05:45;4.40;;;1.30;;
19812;SDS011;10066;48.108;11.448;2022-09-20T14:08:18;5.17;;;1.43;;
19812;SDS011;10066;48.108;11.448;2022-09-20T14:10:52;4.93;;;1.30;;
19812;SDS011;10066;48.108;11.448;2022-09-20T14:13:32;5.10;;;1.10;;
19812;SDS011;10066;48.108;11.448;2022-09-20T14:16:04;4.43;;;1.10;;
19812;SDS011;10066;48.108;11.448;2022-09-20T14:18:32;4.10;;;1.10;;
19812;SDS011;10066;48.108;11.448;2022-09-20T14:21:00;6.00;;;1.27;;
19812;SDS011;10066;48.108;11.448;2022-09-20T14:23:29;2.97;;;1.00;;
19812;SDS011;10066;48.108;11.448;2022-09-20T14:26:19;4.73;;;1.30;;
19812;SDS011;10066;48.108;11.448;2022-09-20T14:28:48;2.37;;;0.97;;
19812;SDS011;10066;48.108;11.448;2022-09-20T14:31:16;7.87;;;1.10;;
19812;SDS011;10066;48.108;11.448;2022-09-20T14:33:47;2.77;;;1.20;;
19812;SDS011;10066;48.108;11.448;2022-09-20T14:36:18;3.37;;;1.20;;
19812;SDS011;10066;48.108;11.448;2022-09-20T14:38:48;8.93;;;1.47;;
19812;SDS011;10066;48.108;11.448;2022-09-20T14:41:24;5.37;;;1.10;;
19812;SDS011;10066;48.108;11.448;2022-09-20T14:43:54;3.30;;;1.03;;
19812;SDS011;10066;48.108;11.448;2022-09-20T14:46:31;5.20;;;1.03;;
19812;SDS011;10066;48.108;11.448;2022-09-20T14:49:18;5.07;;;1.30;;
19812;SDS011;10066;48.108;11.448;2022-09-20T14:54:58;3.93;;;1.10;;
19812;SDS011;10066;48.108;11.448;2022-09-20T14:57:27;6.23;;;0.97;;
19812;SDS011;10066;48.108;11.448;2022-09-20T14:59:56;5.07;;;1.10;;
19812;SDS011;10066;48.108;11.448;2022-09-20T15:02:23;1.23;;;0.60;;
19812;SDS011;10066;48.108;11.448;2022-09-20T15:04:51;4.23;;;1.40;;
19812;SDS011;10066;48.108;11.448;2022-09-20T15:07:21;2.63;;;0.90;;
19812;SDS011;10066;48.108;11.448;2022-09-20T15:09:48;5.10;;;1.00;;
19812;SDS011;10066;48.108;11.448;2022-09-20T15:12:17;5.87;;;1.20;;
19812;SDS011;10066;48.108;11.448;2022-09-20T15:14:46;2.53;;;0.90;;
19812;SDS011;10066;48.108;11.448;2022-09-20T15:17:15;6.47;;;1.23;;
19812;SDS011;10066;48.108;11.448;2022-09-20T15:19:43;2.77;;;1.20;;
19812;SDS011;10066;48.108;11.448;2022-09-20T15:22:10;4.40;;;1.30;;
19812;SDS011;10066;48.108;11.448;2022-09-20T15:24:38;3.97;;;1.30;;
19812;SDS011;10066;48.108;11.448;2022-09-20T15:27:05;3.70;;;0.80;;
19812;SDS011;10066;48.108;11.448;2022-09-20T15:29:34;4.53;;;1.20;;
19812;SDS011;10066;48.108;11.448;2022-09-20T15:32:01;1.73;;;0.83;;
19812;SDS011;10066;48.108;11.448;2022-09-20T15:34:29;2.53;;;1.07;;
19812;SDS011;10066;48.108;11.448;2022-09-20T15:36:56;4.70;;;1.10;;
19812;SDS011;10066;48.108;11.448;2022-09-20T15:39:24;4.27;;;1.03;;
19812;SDS011;10066;48.108;11.448;2022-09-20T15:41:52;2.73;;;0.90;;
19812;SDS011;10066;48.108;11.448;2022-09-20T15:44:23;3.43;;;1.10;;
19812;SDS011;10066;48.108;11.448;2022-09-20T15:46:51;2.40;;;0.90;;
19812;SDS011;10066;48.108;11.448;2022-09-20T15:49:19;5.60;;;1.20;;
19812;SDS011;10066;48.108;11.448;2022-09-20T15:51:46;3.13;;;0.80;;
19812;SDS011;10066;48.108;11.448;2022-09-20T15:54:14;3.63;;;1.10;;
19812;SDS011;10066;48.108;11.448;2022-09-20T15:56:41;3.27;;;1.10;;
19812;SDS011;10066;48.108;11.448;2022-09-20T15:59:09;5.37;;;1.30;;
19812;SDS011;10066;48.108;11.448;2022-09-20T16:01:39;1.83;;;0.93;;
19812;SDS011;10066;48.108;11.448;2022-09-20T16:04:08;6.97;;;1.50;;
19812;SDS011;10066;48.108;11.448;2022-09-20T16:06:36;4.93;;;1.13;;
19812;SDS011;10066;48.108;11.448;2022-09-20T16:09:05;4.13;;;1.00;;
19812;SDS011;10066;48.108;11.448;2022-09-20T16:11:33;4.53;;;1.20;;
19812;SDS011;10066;48.108;11.448;2022-09-20T16:14:00;4.60;;;1.10;;
19812;SDS011;10066;48.108;11.448;2022-09-20T16:16:28;2.53;;;1.23;;
19812;SDS011;10066;48.108;11.448;2022-09-20T16:18:56;3.67;;;1.00;;
19812;SDS011;10066;48.108;11.448;2022-09-20T16:21:43;4.30;;;1.20;;
19812;SDS011;10066;48.108;11.448;2022-09-20T16:24:14;4.67;;;1.20;;
19812;SDS011;10066;48.108;11.448;2022-09-20T16:26:44;4.27;;;1.00;;
19812;SDS011;10066;48.108;11.448;2022-09-20T16:29:11;3.73;;;1.20;;
19812;SDS011;10066;48.108;11.448;2022-09-20T16:31:41;3.50;;;1.10;;
19812;SDS011;10066;48.108;11.448;2022-09-20T16:34:12;2.93;;;1.10;;